Maersk Vilnius — 9V8503 — position and weather

sailwx.info

Track history (hours):
 
Tides and Currents Weather Stations Pressure Air Temp Water Temp Dewpoint Dewpoint Depression Visibility Wind Speed Wind Dir Waves Ship Positions

Maersk Vilnius

Last reported at 2018-Apr-02 23:51 UTC. Time now 2018-Apr-20 20:29 UTC.
Position N 25°24' W 075°55'.
Warning: this ship's position is 17 days out of date.

Length 180 m; draft 9.9 m.

Type: Ship (hazmat cat A). MMSI: 565533000.

Date/timePositionNaut miles runAvg speedWind from/ knotsBaromVisibWave heightAir tempDewpointWater temp
2018-Apr-02 23:51N 25°24' W 075°55'617.5
2018-Apr-02 23:31N 25°26' W 076°01'917.9
2018-Apr-02 23:01N 25°29' W 076°10'918.3
2018-Apr-02 22:30N 25°33' W 076°19'  
2018-Mar-29 13:25N 31°13' W 079°23'6 7.0
2018-Mar-29 12:32N 31°19' W 079°24'3 6.7
2018-Mar-29 12:04N 31°22' W 079°24'21 6.5
2018-Mar-29 08:47N 31°43' W 079°28'7 8.2
2018-Mar-29 07:54N 31°51' W 079°29'185 5.0
2018-Mar-27 18:37N 34°03' W 076°54'214.3
2018-Mar-27 18:31N 34°04' W 076°53'1114.3
2018-Mar-27 17:44N 34°10' W 076°42'314.5
2018-Mar-27 17:30N 34°12' W 076°38'914.3
2018-Mar-27 16:53N 34°17' W 076°29'613.7
2018-Mar-27 16:26N 34°20' W 076°23'613.3
2018-Mar-27 16:00N 34°24' W 076°18'713.3
2018-Mar-27 15:31N 34°30' W 076°15'137 9.2
2018-Mar-27 00:38N 36°45' W 075°42'110.0
2018-Mar-27 00:30N 36°46' W 075°43'5 9.9
2018-Mar-27 00:00N 36°49' W 075°47'5 9.8
2018-Mar-26 23:30N 36°52' W 075°53'5 9.9
2018-Mar-26 23:00N 36°55' W 075°57'5 9.2
2018-Mar-26 22:30N 36°57' W 076°02'4 8.3
2018-Mar-26 21:59N 36°59' W 076°07'713.4
2018-Mar-26 21:27N 37°00' W 076°16'511.5
2018-Mar-26 21:00N 36°57' W 076°20'5 9.3
2018-Mar-26 20:30N 36°52' W 076°20'1 1.1
2018-Mar-26 20:00N 36°51' W 076°19'0 0.0
2018-Mar-26 19:27N 36°51' W 076°19'0 0.0
2018-Mar-26 19:00N 36°51' W 076°19'0 0.0
2018-Mar-26 18:29N 36°51' W 076°19'0 0.0
2018-Mar-26 18:00N 36°51' W 076°19'0 0.0
2018-Mar-26 17:30N 36°51' W 076°19'0 0.0
2018-Mar-26 16:59N 36°51' W 076°19'0 0.0
2018-Mar-26 16:29N 36°51' W 076°19'0 0.0
2018-Mar-26 16:00N 36°51' W 076°19'0 0.0
2018-Mar-26 15:30N 36°51' W 076°19'0 0.0
2018-Mar-26 14:59N 36°51' W 076°19'0 0.0
2018-Mar-26 14:30N 36°51' W 076°19'0 0.0
2018-Mar-26 13:59N 36°51' W 076°19'0 0.0
2018-Mar-26 13:30N 36°51' W 076°19'0 0.0
2018-Mar-26 12:57N 36°51' W 076°19'0 0.0
2018-Mar-26 12:29N 36°51' W 076°19'0 0.0
2018-Mar-26 11:59N 36°51' W 076°19'0 0.0
2018-Mar-26 11:26N 36°51' W 076°19'0 0.0
2018-Mar-26 11:00N 36°51' W 076°19'0 0.0
2018-Mar-26 10:29N 36°51' W 076°19'0 0.4
2018-Mar-26 10:00N 36°52' W 076°19'2 5.0
2018-Mar-26 09:30N 36°54' W 076°20'5 9.1
2018-Mar-26 08:59N 36°59' W 076°20'715.2
2018-Mar-26 08:30N 36°60' W 076°11'916.1
2018-Mar-26 07:58N 36°57' W 076°00'4 8.4
2018-Mar-26 07:30N 37°01' W 076°02'612.9
2018-Mar-26 07:00N 37°06' W 076°07'5113.5
2018-Mar-26 03:14N 37°57' W 076°11'414.1
2018-Mar-26 02:58N 38°00' W 076°13'814.4
2018-Mar-26 02:23N 38°08' W 076°15'3214.3
2018-Mar-26 00:10N 38°39' W 076°25'315.5
2018-Mar-25 23:57N 38°42' W 076°26'716.3
2018-Mar-25 23:30N 38°50' W 076°25'816.6
2018-Mar-25 23:00N 38°58' W 076°23'815.4
2018-Mar-25 22:31N 39°05' W 076°24'713.3
2018-Mar-25 22:01N 39°11' W 076°28'510.8
2018-Mar-25 21:30N 39°15' W 076°33'1 1.5
2018-Mar-25 21:01N 39°15' W 076°33'0 0.0
2018-Mar-25 20:20N 39°15' W 076°33'0 0.0
2018-Mar-25 19:56N 39°15' W 076°33'0 0.0
2018-Mar-25 19:14N 39°15' W 076°33'0 0.0
2018-Mar-25 18:56N 39°15' W 076°33'0 0.0
2018-Mar-25 18:26N 39°15' W 076°33'0 0.0
2018-Mar-25 17:53N 39°15' W 076°33'0 0.0
2018-Mar-25 17:20N 39°15' W 076°33'0 0.0
2018-Mar-25 16:56N 39°15' W 076°33'0 0.0
2018-Mar-25 16:20N 39°15' W 076°33'0 0.0
2018-Mar-25 15:44N 39°15' W 076°33'0 0.0
2018-Mar-25 15:26N 39°15' W 076°33'0 0.0
2018-Mar-25 14:56N 39°15' W 076°33'0 0.0
2018-Mar-25 14:26N 39°15' W 076°33'0 0.0
2018-Mar-25 13:56N 39°15' W 076°33'0 0.0
2018-Mar-25 13:26N 39°15' W 076°33'0 0.0
2018-Mar-25 12:56N 39°15' W 076°33'0 0.0
2018-Mar-25 12:26N 39°15' W 076°33'0 0.0
2018-Mar-25 12:00N 39°15' W 076°33'0 0.0
2018-Mar-25 11:26N 39°15' W 076°33'0 0.0
2018-Mar-25 10:56N 39°15' W 076°33'0 0.0
2018-Mar-25 10:26N 39°15' W 076°33'0 0.0
2018-Mar-25 09:56N 39°15' W 076°33'0 0.0
2018-Mar-25 09:31N 39°15' W 076°33'1 2.2
2018-Mar-25 09:00N 39°14' W 076°33'3 5.9
2018-Mar-25 08:30N 39°12' W 076°30'611.1
2018-Mar-25 08:01N 39°09' W 076°25'713.3
2018-Mar-25 07:31N 39°02' W 076°23'714.1
2018-Mar-25 07:00N 38°55' W 076°23'816.6
2018-Mar-25 06:30N 38°47' W 076°25'4416.3
2018-Mar-25 03:50N 38°04' W 076°13'5415.4
2018-Mar-25 00:18N 37°10' W 076°09'1016.2
2018-Mar-24 23:42N 37°02' W 076°03'416.1
2018-Mar-24 23:29N 36°59' W 076°00'511.0
2018-Mar-24 23:00N 36°56' W 075°55'5 8.9
2018-Mar-24 22:30N 36°52' W 075°51'5 9.8
2018-Mar-24 22:00N 36°50' W 075°46'175 9.9
2018-Mar-24 04:18N 39°21' W 073°54'310.1
2018-Mar-24 03:59N 39°24' W 073°54'610.1
2018-Mar-24 03:27N 39°30' W 073°54'510.2
2018-Mar-24 02:58N 39°35' W 073°53'610.2
2018-Mar-24 02:26N 39°40' W 073°52'510.3
2018-Mar-24 01:57N 39°45' W 073°52'510.4
2018-Mar-24 01:30N 39°50' W 073°51'610.4
2018-Mar-24 00:57N 39°55' W 073°51'510.2
2018-Mar-24 00:27N 40°01' W 073°51'610.2
2018-Mar-23 23:51N 40°07' W 073°50'  
Track history (hours):
 
Tides and Currents Weather Stations Pressure Air Temp Water Temp Dewpoint Dewpoint Depression Visibility Wind Speed Wind Dir Waves Ship Positions

Maersk Vilnius

Last reported at 2018-Apr-02 23:51 UTC. Time now 2018-Apr-20 20:29 UTC.
Position N 25°24' W 075°55'.
Warning: this ship's position is 17 days out of date.

Length 180 m; draft 9.9 m.

Type: Ship (hazmat cat A). MMSI: 565533000.

Date/timePositionNaut miles runAvg speedWind from/ knotsBaromVisibWave heightAir tempDewpointWater temp
2018-Apr-02 23:51N 25°24' W 075°55'617.5
2018-Apr-02 23:31N 25°26' W 076°01'917.9
2018-Apr-02 23:01N 25°29' W 076°10'918.3
2018-Apr-02 22:30N 25°33' W 076°19'  
2018-Mar-29 13:25N 31°13' W 079°23'6 7.0
2018-Mar-29 12:32N 31°19' W 079°24'3 6.7
2018-Mar-29 12:04N 31°22' W 079°24'21 6.5
2018-Mar-29 08:47N 31°43' W 079°28'7 8.2
2018-Mar-29 07:54N 31°51' W 079°29'185 5.0
2018-Mar-27 18:37N 34°03' W 076°54'214.3
2018-Mar-27 18:31N 34°04' W 076°53'1114.3
2018-Mar-27 17:44N 34°10' W 076°42'314.5
2018-Mar-27 17:30N 34°12' W 076°38'914.3
2018-Mar-27 16:53N 34°17' W 076°29'613.7
2018-Mar-27 16:26N 34°20' W 076°23'613.3
2018-Mar-27 16:00N 34°24' W 076°18'713.3
2018-Mar-27 15:31N 34°30' W 076°15'137 9.2
2018-Mar-27 00:38N 36°45' W 075°42'110.0
2018-Mar-27 00:30N 36°46' W 075°43'5 9.9
2018-Mar-27 00:00N 36°49' W 075°47'5 9.8
2018-Mar-26 23:30N 36°52' W 075°53'5 9.9
2018-Mar-26 23:00N 36°55' W 075°57'5 9.2
2018-Mar-26 22:30N 36°57' W 076°02'4 8.3
2018-Mar-26 21:59N 36°59' W 076°07'713.4
2018-Mar-26 21:27N 37°00' W 076°16'511.5
2018-Mar-26 21:00N 36°57' W 076°20'5 9.3
2018-Mar-26 20:30N 36°52' W 076°20'1 1.1
2018-Mar-26 20:00N 36°51' W 076°19'0 0.0
2018-Mar-26 19:27N 36°51' W 076°19'0 0.0
2018-Mar-26 19:00N 36°51' W 076°19'0 0.0
2018-Mar-26 18:29N 36°51' W 076°19'0 0.0
2018-Mar-26 18:00N 36°51' W 076°19'0 0.0
2018-Mar-26 17:30N 36°51' W 076°19'0 0.0
2018-Mar-26 16:59N 36°51' W 076°19'0 0.0
2018-Mar-26 16:29N 36°51' W 076°19'0 0.0
2018-Mar-26 16:00N 36°51' W 076°19'0 0.0
2018-Mar-26 15:30N 36°51' W 076°19'0 0.0
2018-Mar-26 14:59N 36°51' W 076°19'0 0.0
2018-Mar-26 14:30N 36°51' W 076°19'0 0.0
2018-Mar-26 13:59N 36°51' W 076°19'0 0.0
2018-Mar-26 13:30N 36°51' W 076°19'0 0.0
2018-Mar-26 12:57N 36°51' W 076°19'0 0.0
2018-Mar-26 12:29N 36°51' W 076°19'0 0.0
2018-Mar-26 11:59N 36°51' W 076°19'0 0.0
2018-Mar-26 11:26N 36°51' W 076°19'0 0.0
2018-Mar-26 11:00N 36°51' W 076°19'0 0.0
2018-Mar-26 10:29N 36°51' W 076°19'0 0.4
2018-Mar-26 10:00N 36°52' W 076°19'2 5.0
2018-Mar-26 09:30N 36°54' W 076°20'5 9.1
2018-Mar-26 08:59N 36°59' W 076°20'715.2
2018-Mar-26 08:30N 36°60' W 076°11'916.1
2018-Mar-26 07:58N 36°57' W 076°00'4 8.4
2018-Mar-26 07:30N 37°01' W 076°02'612.9
2018-Mar-26 07:00N 37°06' W 076°07'5113.5
2018-Mar-26 03:14N 37°57' W 076°11'414.1
2018-Mar-26 02:58N 38°00' W 076°13'814.4
2018-Mar-26 02:23N 38°08' W 076°15'3214.3
2018-Mar-26 00:10N 38°39' W 076°25'315.5
2018-Mar-25 23:57N 38°42' W 076°26'716.3
2018-Mar-25 23:30N 38°50' W 076°25'816.6
2018-Mar-25 23:00N 38°58' W 076°23'815.4
2018-Mar-25 22:31N 39°05' W 076°24'713.3
2018-Mar-25 22:01N 39°11' W 076°28'510.8
2018-Mar-25 21:30N 39°15' W 076°33'1 1.5
2018-Mar-25 21:01N 39°15' W 076°33'0 0.0
2018-Mar-25 20:20N 39°15' W 076°33'0 0.0
2018-Mar-25 19:56N 39°15' W 076°33'0 0.0
2018-Mar-25 19:14N 39°15' W 076°33'0 0.0
2018-Mar-25 18:56N 39°15' W 076°33'0 0.0
2018-Mar-25 18:26N 39°15' W 076°33'0 0.0
2018-Mar-25 17:53N 39°15' W 076°33'0 0.0
2018-Mar-25 17:20N 39°15' W 076°33'0 0.0
2018-Mar-25 16:56N 39°15' W 076°33'0 0.0
2018-Mar-25 16:20N 39°15' W 076°33'0 0.0
2018-Mar-25 15:44N 39°15' W 076°33'0 0.0
2018-Mar-25 15:26N 39°15' W 076°33'0 0.0
2018-Mar-25 14:56N 39°15' W 076°33'0 0.0
2018-Mar-25 14:26N 39°15' W 076°33'0 0.0
2018-Mar-25 13:56N 39°15' W 076°33'0 0.0
2018-Mar-25 13:26N 39°15' W 076°33'0 0.0
2018-Mar-25 12:56N 39°15' W 076°33'0 0.0
2018-Mar-25 12:26N 39°15' W 076°33'0 0.0
2018-Mar-25 12:00N 39°15' W 076°33'0 0.0
2018-Mar-25 11:26N 39°15' W 076°33'0 0.0
2018-Mar-25 10:56N 39°15' W 076°33'0 0.0
2018-Mar-25 10:26N 39°15' W 076°33'0 0.0
2018-Mar-25 09:56N 39°15' W 076°33'0 0.0
2018-Mar-25 09:31N 39°15' W 076°33'1 2.2
2018-Mar-25 09:00N 39°14' W 076°33'3 5.9
2018-Mar-25 08:30N 39°12' W 076°30'611.1
2018-Mar-25 08:01N 39°09' W 076°25'713.3
2018-Mar-25 07:31N 39°02' W 076°23'714.1
2018-Mar-25 07:00N 38°55' W 076°23'816.6
2018-Mar-25 06:30N 38°47' W 076°25'4416.3
2018-Mar-25 03:50N 38°04' W 076°13'5415.4
2018-Mar-25 00:18N 37°10' W 076°09'1016.2
2018-Mar-24 23:42N 37°02' W 076°03'416.1
2018-Mar-24 23:29N 36°59' W 076°00'511.0
2018-Mar-24 23:00N 36°56' W 075°55'5 8.9
2018-Mar-24 22:30N 36°52' W 075°51'5 9.8
2018-Mar-24 22:00N 36°50' W 075°46'175 9.9
2018-Mar-24 04:18N 39°21' W 073°54'310.1
2018-Mar-24 03:59N 39°24' W 073°54'610.1
2018-Mar-24 03:27N 39°30' W 073°54'510.2
2018-Mar-24 02:58N 39°35' W 073°53'610.2
2018-Mar-24 02:26N 39°40' W 073°52'510.3
2018-Mar-24 01:57N 39°45' W 073°52'510.4
2018-Mar-24 01:30N 39°50' W 073°51'610.4
2018-Mar-24 00:57N 39°55' W 073°51'510.2
2018-Mar-24 00:27N 40°01' W 073°51'610.2
2018-Mar-23 23:51N 40°07' W 073°50'  

Dump ship's entire track history